createdAt,value
2022-09-26T00:01:07.080Z,62.44
2022-09-26T00:02:08.907Z,64.09
2022-09-26T00:03:11.558Z,64.89
2022-09-26T00:04:32.600Z,64.50
2022-09-26T00:05:34.771Z,63.21
2022-09-26T00:06:36.934Z,62.10
2022-09-26T00:07:38.587Z,61.09
2022-09-26T00:08:40.607Z,60.17
2022-09-26T00:09:42.263Z,59.43
2022-09-26T00:10:43.904Z,58.29
2022-09-26T00:11:46.285Z,57.62
2022-09-26T00:12:48.041Z,58.06
2022-09-26T00:13:53.474Z,59.05
2022-09-26T00:14:55.190Z,60.02
2022-09-26T00:15:57.824Z,61.25
2022-09-26T00:17:00.045Z,62.43
2022-09-26T00:18:01.836Z,63.95
2022-09-26T00:19:04.791Z,64.88
2022-09-26T00:20:07.001Z,64.56
2022-09-26T00:21:14.551Z,63.53
2022-09-26T00:22:16.262Z,62.45
2022-09-26T00:23:18.414Z,61.31
2022-09-26T00:24:20.101Z,60.38
2022-09-26T00:25:21.802Z,59.53
2022-09-26T00:26:26.811Z,58.45
2022-09-26T00:27:28.449Z,57.63
2022-09-26T00:28:30.497Z,57.89
2022-09-26T00:29:32.116Z,58.64
2022-09-26T00:30:37.018Z,59.71
2022-09-26T00:31:44.295Z,60.73
2022-09-26T00:32:46.510Z,61.85
2022-09-26T00:33:48.374Z,62.85
2022-09-26T00:34:50.644Z,64.23
2022-09-26T00:35:56.821Z,64.67
2022-09-26T00:36:59.013Z,63.93
2022-09-26T00:38:00.702Z,62.83
2022-09-26T00:39:02.577Z,61.81
2022-09-26T00:40:04.968Z,60.76
2022-09-26T00:41:07.726Z,59.91
2022-09-26T00:42:14.990Z,59.01
2022-09-26T00:43:32.139Z,57.77
2022-09-26T00:44:50.094Z,57.86
2022-09-26T00:45:51.858Z,59.05
2022-09-26T00:46:53.619Z,60.14
2022-09-26T00:48:03.825Z,61.25
2022-09-26T00:49:23.518Z,62.45
2022-09-26T00:50:31.892Z,64.33
2022-09-26T00:51:39.499Z,64.79
2022-09-26T00:52:49.347Z,64.01
2022-09-26T00:53:54.055Z,62.73
2022-09-26T00:55:01.346Z,61.53
2022-09-26T00:56:11.235Z,60.42
2022-09-26T00:57:19.224Z,59.49
2022-09-26T00:58:24.531Z,58.17
2022-09-26T00:59:35.539Z,57.44
2022-09-26T01:00:42.368Z,58.06
2022-09-26T01:01:45.234Z,59.17
2022-09-26T01:02:48.617Z,60.30
2022-09-26T01:03:52.045Z,61.37
2022-09-26T01:04:56.538Z,62.43
2022-09-26T01:06:00.884Z,63.89
2022-09-26T01:07:08.611Z,64.66
2022-09-26T01:08:13.264Z,64.09
2022-09-26T01:09:16.802Z,62.96
2022-09-26T01:10:18.724Z,61.85
2022-09-26T01:11:21.823Z,60.81
2022-09-26T01:12:23.967Z,59.93
2022-09-26T01:13:27.027Z,59.14
2022-09-26T01:14:28.797Z,57.89
2022-09-26T01:15:30.535Z,57.68
2022-09-26T01:16:34.389Z,58.30
2022-09-26T01:17:44.333Z,59.26
2022-09-26T01:18:47.833Z,60.38
2022-09-26T01:20:10.094Z,61.42
2022-09-26T01:21:36.228Z,62.84
2022-09-26T01:23:06.078Z,64.55
2022-09-26T01:24:37.876Z,64.02
2022-09-26T01:26:17.404Z,62.32
2022-09-26T01:27:42.927Z,60.53
2022-09-26T01:29:27.986Z,59.17
2022-09-26T01:30:50.932Z,57.33
2022-09-26T01:32:50.403Z,57.74
2022-09-26T01:34:24.475Z,59.73
2022-09-26T01:35:55.350Z,61.34
2022-09-26T01:37:22.971Z,62.82
2022-09-26T01:38:43.238Z,64.60
2022-09-26T01:40:02.536Z,64.27
2022-09-26T01:41:28.414Z,62.94
2022-09-26T01:43:13.112Z,61.34
2022-09-26T01:44:46.759Z,59.71
2022-09-26T01:46:13.603Z,57.98
2022-09-26T01:47:25.097Z,57.60
2022-09-26T01:48:44.461Z,58.44
2022-09-26T01:50:06.420Z,59.70
2022-09-26T01:51:36.386Z,61.04
2022-09-26T01:53:13.555Z,62.37
2022-09-26T01:54:23.274Z,64.43
2022-09-26T01:55:36.128Z,64.53
2022-09-26T01:56:42.275Z,63.46
2022-09-26T01:58:10.795Z,62.17
2022-09-26T01:59:33.344Z,60.73
2022-09-26T02:00:40.955Z,59.50
2022-09-26T02:01:47.334Z,58.26
2022-09-26T02:02:51.096Z,57.52
2022-09-26T02:04:03.204Z,58.08
2022-09-26T02:05:12.027Z,59.23
2022-09-26T02:06:23.064Z,60.57
2022-09-26T02:07:39.059Z,61.82
2022-09-26T02:08:46.950Z,63.22
2022-09-26T02:10:02.660Z,64.81
2022-09-26T02:11:13.609Z,64.88
2022-09-26T02:12:32.876Z,63.88
2022-09-26T02:13:44.597Z,62.49
2022-09-26T02:14:51.241Z,61.38
2022-09-26T02:16:01.037Z,60.49
2022-09-26T02:17:11.939Z,59.68
2022-09-26T02:18:39.533Z,58.64
2022-09-26T02:19:59.989Z,57.75
2022-09-26T02:21:07.806Z,58.45
2022-09-26T02:22:10.421Z,59.68
2022-09-26T02:23:13.889Z,60.82
2022-09-26T02:24:16.040Z,61.92
2022-09-26T02:25:18.053Z,63.25
2022-09-26T02:26:20.239Z,64.63
2022-09-26T02:27:22.410Z,64.79
2022-09-26T02:28:24.137Z,64.00
2022-09-26T02:29:26.344Z,62.86
2022-09-26T02:30:29.320Z,61.74
2022-09-26T02:31:36.915Z,60.75
2022-09-26T02:32:40.543Z,59.83
2022-09-26T02:33:42.434Z,58.95
2022-09-26T02:34:48.278Z,57.77
2022-09-26T02:35:55.849Z,57.72
2022-09-26T02:37:01.256Z,58.61
2022-09-26T02:38:06.929Z,59.68
2022-09-26T02:39:11.824Z,60.78
2022-09-26T02:40:56.514Z,62.24
2022-09-26T02:42:13.281Z,63.60
2022-09-26T02:44:03.337Z,64.37
2022-09-26T02:45:23.597Z,62.87
2022-09-26T02:46:53.700Z,61.24
2022-09-26T02:48:14.055Z,59.64
2022-09-26T02:49:45.359Z,57.86
2022-09-26T02:51:00.794Z,57.17
2022-09-26T02:52:36.029Z,58.04
2022-09-26T02:53:55.821Z,59.63
2022-09-26T02:55:21.995Z,61.21
2022-09-26T02:56:55.450Z,62.24
2022-09-26T02:58:18.730Z,64.03
2022-09-26T02:59:35.615Z,64.33
2022-09-26T03:01:05.907Z,63.18
2022-09-26T03:02:21.652Z,61.52
2022-09-26T03:04:04.849Z,59.84
2022-09-26T03:05:17.766Z,58.22
2022-09-26T03:06:28.129Z,57.39
2022-09-26T03:07:48.824Z,57.85
2022-09-26T03:08:55.085Z,59.06
2022-09-26T03:10:03.639Z,60.18
2022-09-26T03:11:10.854Z,61.36
2022-09-26T03:12:13.998Z,62.36
2022-09-26T03:13:18.461Z,63.77
2022-09-26T03:14:21.244Z,64.79
2022-09-26T03:15:27.521Z,64.47
2022-09-26T03:16:35.720Z,63.38
2022-09-26T03:17:44.604Z,62.11
2022-09-26T03:19:05.778Z,60.93
2022-09-26T03:20:14.856Z,59.77
2022-09-26T03:21:18.362Z,58.66
2022-09-26T03:22:20.085Z,57.62
2022-09-26T03:23:24.466Z,57.79
2022-09-26T03:24:27.747Z,58.68
2022-09-26T03:25:30.076Z,59.79
2022-09-26T03:26:41.987Z,61.07
2022-09-26T03:27:46.305Z,62.16
2022-09-26T03:28:48.046Z,63.48
2022-09-26T03:29:50.631Z,64.62
2022-09-26T03:30:55.882Z,64.36
2022-09-26T03:32:01.763Z,63.21
2022-09-26T03:33:03.681Z,61.96
2022-09-26T03:34:05.638Z,60.72
2022-09-26T03:35:08.811Z,59.68
2022-09-26T03:36:10.475Z,58.41
2022-09-26T03:37:12.409Z,57.32
2022-09-26T03:38:14.634Z,57.47
2022-09-26T03:39:21.775Z,58.36
2022-09-26T03:40:42.336Z,59.66
2022-09-26T03:42:10.008Z,61.19
2022-09-26T03:43:13.499Z,62.25
2022-09-26T03:44:15.951Z,63.54
2022-09-26T03:45:40.541Z,64.67
2022-09-26T03:46:52.317Z,63.96
2022-09-26T03:47:57.693Z,62.75
2022-09-26T03:48:59.652Z,61.41
2022-09-26T03:50:01.602Z,60.25
2022-09-26T03:51:09.254Z,59.22
2022-09-26T03:52:12.602Z,57.66
2022-09-26T03:53:14.580Z,57.19
2022-09-26T03:54:16.620Z,57.69
2022-09-26T03:55:18.554Z,58.58
2022-09-26T03:56:21.069Z,59.60
2022-09-26T03:57:23.117Z,60.61
2022-09-26T03:58:28.395Z,61.59
2022-09-26T03:59:30.370Z,62.49
2022-09-26T04:00:32.280Z,63.81
2022-09-26T04:01:34.112Z,64.66
2022-09-26T04:02:36.531Z,64.32
2022-09-26T04:03:50.847Z,63.10
2022-09-26T04:04:54.087Z,61.82
2022-09-26T04:05:55.809Z,60.72
2022-09-26T04:06:58.961Z,59.78
2022-09-26T04:08:03.036Z,58.77
2022-09-26T04:09:05.355Z,57.63
2022-09-26T04:10:07.785Z,57.70
2022-09-26T04:11:12.484Z,58.57
2022-09-26T04:12:14.708Z,59.72
2022-09-26T04:13:46.501Z,60.93
2022-09-26T04:14:40.108Z,62.44
2022-09-26T04:15:42.102Z,63.94
2022-09-26T04:16:47.534Z,64.91
2022-09-26T04:18:01.919Z,64.41
2022-09-26T04:19:04.221Z,63.36
2022-09-26T04:20:06.391Z,62.26
2022-09-26T04:21:11.594Z,61.12
2022-09-26T04:22:13.320Z,60.08
2022-09-26T04:23:15.670Z,59.18
2022-09-26T04:24:17.447Z,57.89
2022-09-26T04:25:19.100Z,57.56
2022-09-26T04:26:24.253Z,58.22
2022-09-26T04:27:28.802Z,59.33
2022-09-26T04:28:33.309Z,60.49
2022-09-26T04:29:35.011Z,61.58
2022-09-26T04:30:43.103Z,62.87
2022-09-26T04:31:45.982Z,64.43
2022-09-26T04:32:48.415Z,64.92
2022-09-26T04:34:02.278Z,64.10
2022-09-26T04:35:04.198Z,62.97
2022-09-26T04:36:09.353Z,61.84
2022-09-26T04:37:12.141Z,60.78
2022-09-26T04:38:13.992Z,59.88
2022-09-26T04:39:15.843Z,58.88
2022-09-26T04:40:17.605Z,57.71
2022-09-26T04:41:30.356Z,57.84
2022-09-26T04:42:36.980Z,58.79
2022-09-26T04:43:40.260Z,60.01
2022-09-26T04:44:44.886Z,61.20
2022-09-26T04:45:46.724Z,62.24
2022-09-26T04:46:48.745Z,63.58
2022-09-26T04:47:51.232Z,64.76
2022-09-26T04:49:02.540Z,64.55
2022-09-26T04:50:05.070Z,63.54
2022-09-26T04:51:07.926Z,62.40
2022-09-26T04:52:09.702Z,61.30
2022-09-26T04:53:12.381Z,60.36
2022-09-26T04:54:20.468Z,59.50
2022-09-26T04:55:22.949Z,58.33
2022-09-26T04:56:28.035Z,57.60
2022-09-26T04:57:29.868Z,58.05
2022-09-26T04:58:32.674Z,59.03
2022-09-26T04:59:34.450Z,60.19
2022-09-26T05:00:47.783Z,61.35
2022-09-26T05:01:51.421Z,62.43
2022-09-26T05:02:59.788Z,64.15
2022-09-26T05:04:01.781Z,65.02
2022-09-26T05:05:06.830Z,64.75
2022-09-26T05:06:13.581Z,63.87
2022-09-26T05:07:16.344Z,62.53
2022-09-26T05:08:18.109Z,61.13
2022-09-26T05:09:20.727Z,60.04
2022-09-26T05:10:28.750Z,58.97
2022-09-26T05:11:34.273Z,57.65
2022-09-26T05:12:36.018Z,57.38
2022-09-26T05:13:38.850Z,57.97
2022-09-26T05:14:44.347Z,58.98
2022-09-26T05:15:45.983Z,60.10
2022-09-26T05:16:47.981Z,61.16
2022-09-26T05:17:57.552Z,62.16
2022-09-26T05:18:59.525Z,63.54
2022-09-26T05:20:04.498Z,64.71
2022-09-26T05:21:56.145Z,63.83
2022-09-26T05:22:59.032Z,62.59
2022-09-26T05:24:19.560Z,61.50
2022-09-26T05:25:40.412Z,60.23
2022-09-26T05:26:49.367Z,59.19
2022-09-26T05:27:53.512Z,57.86
2022-09-26T05:29:07.715Z,57.68
2022-09-26T05:30:17.809Z,58.70
2022-09-26T05:31:19.816Z,59.90
2022-09-26T05:32:22.256Z,61.14
2022-09-26T05:33:25.297Z,62.27
2022-09-26T05:34:27.305Z,63.72
2022-09-26T05:35:29.146Z,64.99
2022-09-26T05:36:31.183Z,65.02
2022-09-26T05:37:33.634Z,64.24
2022-09-26T05:38:35.540Z,63.23
2022-09-26T05:39:56.166Z,62.14
2022-09-26T05:40:58.146Z,60.99
2022-09-26T05:42:01.122Z,60.25
2022-09-26T05:43:03.621Z,59.67
2022-09-26T05:44:05.417Z,58.80
2022-09-26T05:45:13.015Z,57.86
2022-09-26T05:46:16.689Z,58.18
2022-09-26T05:47:22.392Z,59.26
2022-09-26T05:48:25.485Z,60.38
2022-09-26T05:49:27.804Z,61.53
2022-09-26T05:50:29.731Z,62.73
2022-09-26T05:51:33.498Z,64.35
2022-09-26T05:52:39.448Z,65.04
2022-09-26T05:53:44.276Z,64.50
2022-09-26T05:54:47.648Z,63.50
2022-09-26T05:56:48.751Z,61.47
2022-09-26T05:58:10.030Z,60.39
2022-09-26T05:59:46.942Z,59.33
2022-09-26T06:01:17.441Z,57.94
2022-09-26T06:02:21.093Z,57.99
2022-09-26T06:03:46.788Z,59.27
2022-09-26T06:04:54.052Z,60.55
2022-09-26T06:06:44.281Z,62.68
2022-09-26T06:07:47.150Z,64.33
2022-09-26T06:09:07.487Z,64.98
2022-09-26T06:10:41.496Z,63.77
2022-09-26T06:11:43.184Z,62.66
2022-09-26T06:12:50.905Z,61.62
2022-09-26T06:13:53.578Z,60.64
2022-09-26T06:14:55.268Z,59.91
2022-09-26T06:16:00.557Z,59.19
2022-09-26T06:17:02.330Z,58.06
2022-09-26T06:18:05.243Z,57.92
2022-09-26T06:19:07.715Z,58.59
2022-09-26T06:20:10.807Z,59.71
2022-09-26T06:21:15.086Z,60.85
2022-09-26T06:22:16.779Z,61.90
2022-09-26T06:23:18.515Z,62.94
2022-09-26T06:24:21.256Z,64.48
2022-09-26T06:25:26.013Z,64.81
2022-09-26T06:26:30.686Z,64.14
2022-09-26T06:27:34.931Z,63.07
2022-09-26T06:28:38.981Z,61.95
2022-09-26T06:29:40.873Z,60.93
2022-09-26T06:30:42.625Z,60.02
2022-09-26T06:31:46.995Z,59.31
2022-09-26T06:32:53.272Z,58.19
2022-09-26T06:34:15.707Z,57.82
2022-09-26T06:36:15.850Z,59.50
2022-09-26T06:37:17.514Z,60.68
2022-09-26T06:38:19.187Z,61.72
2022-09-26T06:39:20.910Z,62.88
2022-09-26T06:40:22.745Z,64.60
2022-09-26T06:41:26.518Z,65.25
2022-09-26T06:42:28.203Z,64.76
2022-09-26T06:43:49.938Z,63.51
2022-09-26T06:45:10.672Z,62.17
2022-09-26T06:47:05.433Z,60.63
2022-09-26T06:48:13.211Z,59.91
2022-09-26T06:49:30.952Z,59.21
2022-09-26T06:50:37.845Z,58.03
2022-09-26T06:51:39.490Z,57.81
2022-09-26T06:52:44.085Z,58.74
2022-09-26T06:53:46.877Z,59.82
2022-09-26T06:54:56.701Z,60.90
2022-09-26T06:55:59.490Z,62.29
2022-09-26T06:57:01.549Z,64.01
2022-09-26T06:58:03.635Z,65.34
2022-09-26T06:59:12.992Z,65.28
2022-09-26T07:00:23.486Z,64.20
2022-09-26T07:02:06.350Z,62.60
2022-09-26T07:03:26.833Z,61.55
2022-09-26T07:04:38.952Z,60.71
2022-09-26T07:06:03.323Z,59.90
2022-09-26T07:07:05.618Z,59.40
2022-09-26T07:08:07.391Z,58.57
2022-09-26T07:09:12.240Z,58.21
2022-09-26T07:10:26.280Z,59.08
2022-09-26T07:11:56.624Z,60.42
2022-09-26T07:13:05.843Z,61.79
2022-09-26T07:14:07.582Z,63.10
2022-09-26T07:15:15.398Z,64.52
2022-09-26T07:16:18.147Z,64.75
2022-09-26T07:18:19.190Z,63.03
2022-09-26T07:19:35.610Z,61.81
2022-09-26T07:20:45.426Z,60.93
2022-09-26T07:22:05.537Z,59.98
2022-09-26T07:23:16.865Z,59.25
2022-09-26T07:24:19.888Z,58.13
2022-09-26T07:25:22.182Z,57.85
2022-09-26T07:26:24.891Z,58.43
2022-09-26T07:27:26.933Z,59.34
2022-09-26T07:28:29.275Z,60.55
2022-09-26T07:29:32.338Z,61.74
2022-09-26T07:30:34.515Z,62.99
2022-09-26T07:31:46.329Z,64.97
2022-09-26T07:33:03.708Z,65.33
2022-09-26T07:34:25.218Z,64.31
2022-09-26T07:35:27.368Z,62.94
2022-09-26T07:36:29.283Z,61.87
2022-09-26T07:37:32.224Z,61.02
2022-09-26T07:38:34.598Z,60.30
2022-09-26T07:39:37.774Z,59.66
2022-09-26T07:40:43.244Z,58.98
2022-09-26T07:41:46.110Z,58.16
2022-09-26T07:43:09.282Z,58.42
2022-09-26T07:45:51.139Z,61.25
2022-09-26T07:47:11.258Z,62.38
2022-09-26T07:48:31.930Z,64.33
2022-09-26T07:50:23.342Z,64.35
2022-09-26T07:51:40.007Z,63.11
2022-09-26T07:52:48.178Z,62.07
2022-09-26T07:53:49.825Z,60.79
2022-09-26T07:55:12.632Z,59.61
2022-09-26T07:56:26.128Z,58.61
2022-09-26T07:57:35.453Z,57.74
2022-09-26T07:58:50.576Z,57.99
2022-09-26T08:00:40.260Z,59.59
2022-09-26T08:02:30.577Z,61.35
2022-09-26T08:03:33.169Z,62.25
2022-09-26T08:04:45.286Z,63.61
2022-09-26T08:05:47.067Z,64.68
2022-09-26T08:06:50.193Z,64.88
2022-09-26T08:07:51.961Z,64.11
2022-09-26T08:09:12.087Z,62.71
2022-09-26T08:10:33.671Z,61.53
2022-09-26T08:11:55.857Z,60.51
2022-09-26T08:13:16.284Z,59.57
2022-09-26T08:14:37.476Z,58.20
2022-09-26T08:16:01.951Z,57.34
2022-09-26T08:17:04.183Z,57.61
2022-09-26T08:18:06.025Z,58.64
2022-09-26T08:19:17.179Z,59.73
2022-09-26T08:20:19.873Z,60.66
2022-09-26T08:21:23.148Z,61.60
2022-09-26T08:22:28.856Z,62.63
2022-09-26T08:23:30.712Z,63.90
2022-09-26T08:24:53.377Z,63.90
2022-09-26T08:26:09.763Z,62.57
2022-09-26T08:27:22.716Z,60.96
2022-09-26T08:28:28.524Z,59.72
2022-09-26T08:29:34.147Z,58.39
2022-09-26T08:30:37.150Z,57.50
2022-09-26T08:31:40.069Z,57.46
2022-09-26T08:32:44.454Z,58.19
2022-09-26T08:33:49.191Z,59.10
2022-09-26T08:34:52.567Z,60.21
2022-09-26T08:36:12.668Z,61.29
2022-09-26T08:38:02.797Z,62.01
2022-09-26T08:39:13.315Z,62.43
2022-09-26T08:41:14.273Z,63.88
2022-09-26T08:42:58.842Z,63.48
2022-09-26T08:44:34.382Z,61.56
2022-09-26T08:46:12.590Z,59.94
2022-09-26T08:47:34.742Z,58.61
2022-09-26T08:49:16.629Z,57.09
2022-09-26T08:50:32.699Z,57.59
2022-09-26T08:51:42.108Z,58.35
2022-09-26T08:53:10.406Z,59.19
2022-09-26T08:54:34.977Z,59.94
2022-09-26T08:55:43.437Z,60.93
2022-09-26T08:57:05.878Z,61.48
2022-09-26T08:58:15.285Z,62.36
2022-09-26T08:59:29.585Z,64.20
2022-09-26T09:00:34.425Z,65.08
2022-09-26T09:01:45.178Z,64.48
2022-09-26T09:03:04.065Z,62.51
2022-09-26T09:04:44.812Z,61.08
2022-09-26T09:05:54.590Z,59.11
2022-09-26T09:07:11.927Z,57.46
2022-09-26T09:08:22.765Z,56.81
2022-09-26T09:10:24.085Z,57.96
2022-09-26T09:11:51.091Z,59.31
2022-09-26T09:13:14.889Z,60.00
2022-09-26T09:14:40.309Z,60.92
2022-09-26T09:16:12.716Z,62.07
2022-09-26T09:17:43.027Z,62.89
2022-09-26T09:19:30.737Z,63.27
2022-09-26T09:21:09.190Z,61.80
2022-09-26T09:22:48.920Z,59.98
2022-09-26T09:24:14.123Z,57.87
2022-09-26T09:25:29.598Z,56.75
2022-09-26T09:28:10.466Z,56.84
2022-09-26T09:29:35.632Z,57.75
2022-09-26T09:31:02.184Z,58.83
2022-09-26T09:32:32.337Z,59.46
2022-09-26T09:33:58.789Z,60.45
2022-09-26T09:35:29.346Z,61.14
2022-09-26T09:36:57.777Z,60.83
2022-09-26T09:39:05.792Z,61.79
2022-09-26T09:40:35.695Z,62.24
2022-09-26T09:41:53.729Z,62.14
2022-09-26T09:43:13.767Z,62.36
2022-09-26T09:44:34.149Z,63.15
2022-09-26T09:45:48.301Z,63.26
2022-09-26T09:46:51.493Z,61.82
2022-09-26T09:47:53.524Z,60.19
2022-09-26T09:49:09.375Z,58.47
2022-09-26T09:50:17.662Z,56.30
2022-09-26T09:51:25.225Z,55.90
2022-09-26T09:52:43.027Z,56.09
2022-09-26T09:54:12.714Z,56.37
2022-09-26T09:55:38.682Z,57.21
2022-09-26T09:57:17.226Z,58.21
2022-09-26T09:58:18.885Z,59.01
2022-09-26T09:59:42.373Z,59.58
2022-09-26T10:01:03.758Z,59.81
2022-09-26T10:02:40.321Z,60.38
2022-09-26T10:04:05.370Z,61.04
2022-09-26T10:05:45.296Z,61.13
2022-09-26T10:06:52.629Z,61.80
2022-09-26T10:07:59.337Z,62.21
2022-09-26T10:09:54.176Z,63.44
2022-09-26T10:11:42.399Z,64.20
2022-09-26T10:13:27.270Z,61.85
2022-09-26T10:15:02.388Z,59.43
2022-09-26T10:16:23.788Z,56.67
2022-09-26T10:17:31.199Z,55.74
2022-09-26T10:19:00.821Z,55.81
2022-09-26T10:20:05.414Z,56.72
2022-09-26T10:21:16.198Z,57.14
2022-09-26T10:22:37.340Z,57.39
2022-09-26T10:23:46.805Z,58.08
2022-09-26T10:25:08.608Z,58.75
2022-09-26T10:26:13.727Z,59.16
2022-09-26T10:27:38.222Z,58.93
2022-09-26T10:28:57.980Z,59.32
2022-09-26T10:30:02.117Z,59.03
2022-09-26T10:31:10.623Z,58.62
2022-09-26T10:32:45.855Z,58.81
2022-09-26T10:34:24.284Z,58.82
2022-09-26T10:35:46.601Z,59.39
2022-09-26T10:36:50.801Z,59.76
2022-09-26T10:38:06.203Z,59.81
2022-09-26T10:39:35.386Z,59.78
2022-09-26T10:40:51.158Z,59.24
2022-09-26T10:41:58.461Z,59.28
2022-09-26T10:43:21.999Z,59.45
2022-09-26T10:44:28.978Z,59.69
2022-09-26T10:46:16.469Z,59.79
2022-09-26T10:47:38.152Z,60.05
2022-09-26T10:48:48.900Z,60.40
2022-09-26T10:50:17.687Z,60.75
2022-09-26T10:51:45.524Z,61.20
2022-09-26T10:52:57.634Z,61.46
2022-09-26T10:54:16.322Z,61.18
2022-09-26T10:55:29.240Z,61.30
2022-09-26T10:56:41.646Z,61.14
2022-09-26T10:57:48.664Z,61.13
2022-09-26T10:58:52.180Z,60.98
2022-09-26T10:59:59.457Z,60.93
2022-09-26T11:01:01.517Z,61.17
2022-09-26T11:02:05.490Z,61.43
2022-09-26T11:03:16.409Z,61.81
2022-09-26T11:05:05.442Z,62.14
2022-09-26T11:06:34.925Z,61.93
2022-09-26T11:08:38.263Z,61.55
2022-09-26T11:10:34.251Z,61.66
2022-09-26T11:11:48.035Z,61.92
2022-09-26T11:13:00.777Z,62.12
2022-09-26T11:14:07.546Z,62.27
2022-09-26T11:15:13.129Z,62.37
2022-09-26T11:16:20.300Z,62.74
2022-09-26T11:17:47.894Z,63.69
2022-09-26T11:19:07.873Z,63.08
2022-09-26T11:20:35.485Z,61.20
2022-09-26T11:22:08.033Z,59.47
2022-09-26T11:23:17.681Z,55.36
2022-09-26T11:24:37.947Z,53.46
2022-09-26T11:25:58.160Z,53.08
2022-09-26T11:27:10.671Z,53.28
2022-09-26T11:28:34.407Z,53.93
2022-09-26T11:30:21.811Z,55.20
2022-09-26T11:31:42.948Z,55.92
2022-09-26T11:33:17.536Z,56.70
2022-09-26T11:35:03.102Z,57.33
2022-09-26T11:36:28.802Z,57.56
2022-09-26T11:37:45.668Z,57.85
2022-09-26T11:38:55.972Z,58.23
2022-09-26T11:40:27.170Z,58.62
2022-09-26T11:41:38.720Z,59.36
2022-09-26T11:43:02.252Z,59.01
2022-09-26T11:44:35.715Z,58.84
2022-09-26T11:46:17.390Z,58.77
2022-09-26T11:48:17.022Z,58.75
2022-09-26T11:50:50.325Z,58.66
2022-09-26T11:52:29.610Z,59.02
2022-09-26T11:54:09.517Z,59.55
2022-09-26T11:55:24.283Z,59.92
2022-09-26T11:56:47.860Z,60.21
2022-09-26T11:57:55.464Z,60.57
2022-09-26T11:59:31.557Z,60.91
2022-09-26T12:01:16.971Z,61.07
2022-09-26T12:03:06.813Z,61.05
2022-09-26T12:04:57.941Z,61.07
2022-09-26T12:06:01.282Z,60.85
2022-09-26T12:07:22.354Z,60.99
2022-09-26T12:09:05.074Z,61.47
2022-09-26T12:10:33.049Z,60.82
2022-09-26T12:11:51.159Z,60.65
2022-09-26T12:13:17.211Z,60.51
2022-09-26T12:14:38.984Z,60.62
2022-09-26T12:16:07.001Z,61.31
2022-09-26T12:17:18.801Z,61.09
2022-09-26T12:18:43.543Z,60.72
2022-09-26T12:20:03.110Z,60.72
2022-09-26T12:21:28.846Z,61.00
2022-09-26T12:22:49.756Z,60.70
2022-09-26T12:24:31.178Z,60.32
2022-09-26T12:25:46.222Z,59.83
2022-09-26T12:27:04.256Z,59.77
2022-09-26T12:28:27.578Z,59.40
2022-09-26T12:29:46.933Z,59.18
2022-09-26T12:30:58.870Z,58.78
2022-09-26T12:32:27.347Z,58.49
2022-09-26T12:33:49.738Z,58.54
2022-09-26T12:35:32.002Z,58.93
2022-09-26T12:36:54.562Z,58.73
2022-09-26T12:38:20.662Z,58.62
2022-09-26T12:39:40.947Z,58.32
2022-09-26T12:40:53.716Z,58.28
2022-09-26T12:42:13.882Z,58.47
2022-09-26T12:43:44.642Z,58.52
2022-09-26T12:45:20.082Z,58.18
2022-09-26T12:46:59.253Z,58.17
2022-09-26T12:48:35.768Z,57.73
2022-09-26T12:50:08.183Z,58.06
2022-09-26T12:51:32.767Z,57.98
2022-09-26T12:53:02.917Z,57.36
2022-09-26T12:54:40.213Z,56.76
2022-09-26T12:55:47.542Z,56.47
2022-09-26T12:57:00.966Z,56.52
2022-09-26T12:58:37.957Z,56.33
2022-09-26T13:00:12.562Z,55.56
2022-09-26T13:01:44.952Z,55.59
2022-09-26T13:03:10.479Z,55.36
2022-09-26T13:04:39.956Z,55.32
2022-09-26T13:06:09.575Z,54.61
2022-09-26T13:07:42.342Z,53.83
2022-09-26T13:09:24.115Z,53.08
2022-09-26T13:10:40.906Z,52.82
2022-09-26T13:11:59.517Z,52.17
2022-09-26T13:13:47.674Z,51.98
2022-09-26T13:15:00.803Z,52.00
2022-09-26T13:16:27.555Z,51.93
2022-09-26T13:17:46.042Z,51.93
2022-09-26T13:18:56.551Z,52.19
2022-09-26T13:20:14.643Z,52.14
2022-09-26T13:21:27.077Z,52.36
2022-09-26T13:22:44.357Z,52.36
2022-09-26T13:24:01.124Z,52.55
2022-09-26T13:25:11.498Z,52.96
2022-09-26T13:26:43.725Z,53.64
2022-09-26T13:28:09.207Z,54.16
2022-09-26T13:29:26.999Z,54.66
2022-09-26T13:30:35.692Z,54.60
2022-09-26T13:31:56.106Z,54.57
2022-09-26T13:33:20.853Z,54.66
2022-09-26T13:34:37.498Z,55.16
2022-09-26T13:35:47.791Z,55.18
2022-09-26T13:36:51.620Z,55.21
2022-09-26T13:38:15.427Z,55.17
2022-09-26T13:39:29.948Z,55.07
2022-09-26T13:40:55.569Z,55.47
2022-09-26T13:42:17.908Z,55.85
2022-09-26T13:43:47.675Z,55.56
2022-09-26T13:45:02.458Z,55.13
2022-09-26T13:46:20.317Z,54.95
2022-09-26T13:47:41.457Z,55.14
2022-09-26T13:49:01.116Z,54.80
2022-09-26T13:50:23.305Z,54.48
2022-09-26T13:51:40.136Z,54.33
2022-09-26T13:53:09.961Z,54.25
2022-09-26T13:54:27.853Z,54.46
2022-09-26T13:55:30.335Z,54.56
2022-09-26T13:56:35.085Z,54.83
2022-09-26T13:58:06.914Z,55.03
2022-09-26T13:59:14.736Z,55.08
2022-09-26T14:00:31.475Z,55.09
2022-09-26T14:01:33.668Z,55.19
2022-09-26T14:02:35.429Z,55.20
2022-09-26T14:03:38.918Z,55.21
2022-09-26T14:04:40.727Z,55.45
2022-09-26T14:05:42.246Z,55.73
2022-09-26T14:07:24.084Z,55.97
2022-09-26T14:08:44.246Z,56.45
2022-09-26T14:10:04.001Z,56.73
2022-09-26T14:11:12.166Z,56.82
2022-09-26T14:12:20.226Z,57.07
2022-09-26T14:13:37.261Z,57.37
2022-09-26T14:14:46.298Z,57.62
2022-09-26T14:15:48.250Z,57.86
2022-09-26T14:16:53.679Z,58.07
2022-09-26T14:18:08.457Z,58.34
2022-09-26T14:19:18.848Z,58.48
2022-09-26T14:20:27.293Z,58.54
2022-09-26T14:21:39.811Z,58.69
2022-09-26T14:22:52.641Z,59.07
2022-09-26T14:24:32.047Z,59.20
2022-09-26T14:25:45.770Z,59.27
2022-09-26T14:27:26.093Z,59.41
2022-09-26T14:28:34.929Z,59.34
2022-09-26T14:29:39.340Z,59.54
2022-09-26T14:31:13.303Z,59.77
2022-09-26T14:32:43.465Z,60.25
2022-09-26T14:33:46.101Z,60.96
2022-09-26T14:34:57.172Z,61.67
2022-09-26T14:36:25.535Z,62.60
2022-09-26T14:37:41.484Z,64.50
2022-09-26T14:38:48.406Z,64.39
2022-09-26T14:40:34.517Z,63.08
2022-09-26T14:41:36.627Z,60.70
2022-09-26T14:42:51.756Z,59.15
2022-09-26T14:44:02.573Z,57.15
2022-09-26T14:45:17.558Z,56.61
2022-09-26T14:46:25.475Z,57.26
2022-09-26T14:47:40.206Z,58.11
2022-09-26T14:48:43.231Z,59.13
2022-09-26T14:49:58.049Z,60.03
2022-09-26T14:51:11.707Z,60.94
2022-09-26T14:52:20.385Z,61.34
2022-09-26T14:53:34.044Z,61.91
2022-09-26T14:54:40.830Z,62.54
2022-09-26T14:56:02.997Z,64.12
2022-09-26T14:57:08.319Z,65.10
2022-09-26T14:58:28.902Z,64.35
2022-09-26T14:59:42.453Z,63.21
2022-09-26T15:00:49.693Z,61.68
2022-09-26T15:02:40.567Z,60.52
2022-09-26T15:03:43.183Z,58.18
2022-09-26T15:04:51.745Z,57.09
2022-09-26T15:05:53.427Z,57.06
2022-09-26T15:07:01.092Z,57.58
2022-09-26T15:08:03.075Z,58.49
2022-09-26T15:09:11.334Z,59.41
2022-09-26T15:10:13.251Z,60.41
2022-09-26T15:11:30.200Z,61.33
2022-09-26T15:12:48.202Z,62.25
2022-09-26T15:13:52.570Z,63.67
2022-09-26T15:15:15.801Z,64.60
2022-09-26T15:16:29.204Z,63.94
2022-09-26T15:17:40.459Z,62.65
2022-09-26T15:18:50.060Z,61.13
2022-09-26T15:19:57.622Z,59.97
2022-09-26T15:21:12.027Z,59.04
2022-09-26T15:22:18.845Z,57.30
2022-09-26T15:23:31.674Z,57.00
2022-09-26T15:24:36.684Z,57.56
2022-09-26T15:25:38.820Z,58.55
2022-09-26T15:26:43.324Z,59.64
2022-09-26T15:27:56.943Z,60.60
2022-09-26T15:29:00.277Z,61.40
2022-09-26T15:30:22.759Z,62.13
2022-09-26T15:31:38.017Z,63.70
2022-09-26T15:32:40.237Z,64.61
2022-09-26T15:33:42.148Z,64.08
2022-09-26T15:34:44.659Z,63.01
2022-09-26T15:35:54.195Z,61.79
2022-09-26T15:36:59.313Z,60.63
2022-09-26T15:38:12.099Z,59.67
2022-09-26T15:39:31.975Z,58.30
2022-09-26T15:40:33.853Z,57.44
2022-09-26T15:42:03.284Z,57.89
2022-09-26T15:43:12.489Z,59.11
2022-09-26T15:44:23.556Z,60.07
2022-09-26T15:45:33.589Z,61.08
2022-09-26T15:46:35.703Z,61.97
2022-09-26T15:47:43.298Z,62.94
2022-09-26T15:48:45.126Z,64.20
2022-09-26T15:49:47.263Z,64.18
2022-09-26T15:50:57.360Z,63.30
2022-09-26T15:51:59.170Z,61.99
2022-09-26T15:53:28.058Z,60.92
2022-09-26T15:54:33.046Z,59.62
2022-09-26T15:55:45.479Z,58.36
2022-09-26T15:56:50.156Z,57.37
2022-09-26T15:57:57.136Z,57.73
2022-09-26T15:59:26.389Z,58.66
2022-09-26T16:00:36.370Z,59.99